sensor_id;sensor_type;location;lat;lon;timestamp;pressure;altitude;pressure_sealevel;temperature
18713;BMP280;9485;49.386;8.674;2023-11-22T00:03:27;100960.75;;;9.80
18713;BMP280;9485;49.386;8.674;2023-11-22T00:08:48;100967.38;;;9.68
18713;BMP280;9485;49.386;8.674;2023-11-22T00:14:10;100968.19;;;9.60
18713;BMP280;9485;49.386;8.674;2023-11-22T00:19:31;100977.31;;;9.55
18713;BMP280;9485;49.386;8.674;2023-11-22T00:24:52;100987.38;;;9.47
18713;BMP280;9485;49.386;8.674;2023-11-22T00:30:14;100998.06;;;9.34
18713;BMP280;9485;49.386;8.674;2023-11-22T00:35:36;101009.81;;;9.24
18713;BMP280;9485;49.386;8.674;2023-11-22T00:40:56;101022.06;;;9.12
18713;BMP280;9485;49.386;8.674;2023-11-22T00:46:19;101032.53;;;9.02
18713;BMP280;9485;49.386;8.674;2023-11-22T00:51:39;101045.88;;;8.84
18713;BMP280;9485;49.386;8.674;2023-11-22T00:57:00;101055.72;;;8.71
18713;BMP280;9485;49.386;8.674;2023-11-22T01:02:22;101063.38;;;8.61
18713;BMP280;9485;49.386;8.674;2023-11-22T01:07:43;101060.41;;;8.56
18713;BMP280;9485;49.386;8.674;2023-11-22T01:13:03;101052.25;;;8.49
18713;BMP280;9485;49.386;8.674;2023-11-22T01:18:25;101052.25;;;8.40
18713;BMP280;9485;49.386;8.674;2023-11-22T01:23:47;101063.78;;;8.24
18713;BMP280;9485;49.386;8.674;2023-11-22T01:29:07;101066.50;;;8.06
18713;BMP280;9485;49.386;8.674;2023-11-22T01:34:29;101070.38;;;7.91
18713;BMP280;9485;49.386;8.674;2023-11-22T01:39:50;101064.97;;;7.75
18713;BMP280;9485;49.386;8.674;2023-11-22T01:45:12;101084.09;;;7.58
18713;BMP280;9485;49.386;8.674;2023-11-22T01:50:34;101090.47;;;7.50
18713;BMP280;9485;49.386;8.674;2023-11-22T01:55:55;101095.97;;;7.32
18713;BMP280;9485;49.386;8.674;2023-11-22T02:01:17;101112.31;;;7.25
18713;BMP280;9485;49.386;8.674;2023-11-22T02:06:40;101107.84;;;7.15
18713;BMP280;9485;49.386;8.674;2023-11-22T02:12:01;101118.19;;;6.96
18713;BMP280;9485;49.386;8.674;2023-11-22T02:17:21;101100.38;;;6.78
18713;BMP280;9485;49.386;8.674;2023-11-22T02:22:46;101124.19;;;6.73
18713;BMP280;9485;49.386;8.674;2023-11-22T02:28:09;101138.22;;;6.73
18713;BMP280;9485;49.386;8.674;2023-11-22T02:33:30;101145.53;;;6.71
18713;BMP280;9485;49.386;8.674;2023-11-22T02:38:51;101166.41;;;6.70
18713;BMP280;9485;49.386;8.674;2023-11-22T02:44:15;101176.41;;;6.71
18713;BMP280;9485;49.386;8.674;2023-11-22T02:49:36;101174.41;;;6.59
18713;BMP280;9485;49.386;8.674;2023-11-22T02:54:57;101186.53;;;6.44
18713;BMP280;9485;49.386;8.674;2023-11-22T03:00:19;101175.66;;;6.33
18713;BMP280;9485;49.386;8.674;2023-11-22T03:05:40;101187.91;;;6.14
18713;BMP280;9485;49.386;8.674;2023-11-22T03:11:01;101178.25;;;6.03
18713;BMP280;9485;49.386;8.674;2023-11-22T03:16:23;101177.69;;;5.96
18713;BMP280;9485;49.386;8.674;2023-11-22T03:21:44;101187.19;;;5.86
18713;BMP280;9485;49.386;8.674;2023-11-22T03:27:05;101197.03;;;5.78
18713;BMP280;9485;49.386;8.674;2023-11-22T03:32:27;101214.59;;;5.66
18713;BMP280;9485;49.386;8.674;2023-11-22T03:37:48;101233.69;;;5.55
18713;BMP280;9485;49.386;8.674;2023-11-22T03:43:10;101227.63;;;5.44
18713;BMP280;9485;49.386;8.674;2023-11-22T03:48:32;101239.88;;;5.34
18713;BMP280;9485;49.386;8.674;2023-11-22T03:53:53;101265.28;;;5.27
18713;BMP280;9485;49.386;8.674;2023-11-22T03:59:14;101254.38;;;5.17
18713;BMP280;9485;49.386;8.674;2023-11-22T04:04:36;101256.22;;;5.07
18713;BMP280;9485;49.386;8.674;2023-11-22T04:09:59;101265.59;;;5.01
18713;BMP280;9485;49.386;8.674;2023-11-22T04:15:20;101271.69;;;4.96
18713;BMP280;9485;49.386;8.674;2023-11-22T04:20:41;101275.47;;;4.89
18713;BMP280;9485;49.386;8.674;2023-11-22T04:26:03;101292.44;;;4.82
18713;BMP280;9485;49.386;8.674;2023-11-22T04:31:26;101319.03;;;4.74
18713;BMP280;9485;49.386;8.674;2023-11-22T04:36:48;101334.22;;;4.73
18713;BMP280;9485;49.386;8.674;2023-11-22T04:42:09;101340.44;;;4.65
18713;BMP280;9485;49.386;8.674;2023-11-22T04:47:29;101339.38;;;4.59
18713;BMP280;9485;49.386;8.674;2023-11-22T04:52:51;101350.19;;;4.57
18713;BMP280;9485;49.386;8.674;2023-11-22T04:58:12;101348.69;;;4.52
18713;BMP280;9485;49.386;8.674;2023-11-22T05:03:33;101365.13;;;4.50
18713;BMP280;9485;49.386;8.674;2023-11-22T05:08:55;101354.44;;;4.45
18713;BMP280;9485;49.386;8.674;2023-11-22T05:14:16;101361.25;;;4.44
18713;BMP280;9485;49.386;8.674;2023-11-22T05:19:36;101368.16;;;4.40
18713;BMP280;9485;49.386;8.674;2023-11-22T05:24:58;101367.53;;;4.33
18713;BMP280;9485;49.386;8.674;2023-11-22T05:30:19;101380.44;;;4.27
18713;BMP280;9485;49.386;8.674;2023-11-22T05:35:41;101380.84;;;4.25
18713;BMP280;9485;49.386;8.674;2023-11-22T05:41:05;101390.13;;;4.22
18713;BMP280;9485;49.386;8.674;2023-11-22T05:46:25;101395.47;;;4.13
18713;BMP280;9485;49.386;8.674;2023-11-22T05:51:46;101408.00;;;4.05
18713;BMP280;9485;49.386;8.674;2023-11-22T05:57:08;101422.63;;;3.93
18713;BMP280;9485;49.386;8.674;2023-11-22T06:02:29;101432.34;;;3.85
18713;BMP280;9485;49.386;8.674;2023-11-22T06:07:49;101438.75;;;3.86
18713;BMP280;9485;49.386;8.674;2023-11-22T06:13:12;101442.38;;;3.83
18713;BMP280;9485;49.386;8.674;2023-11-22T06:18:33;101442.38;;;3.83
18713;BMP280;9485;49.386;8.674;2023-11-22T06:23:59;101446.50;;;3.75
18713;BMP280;9485;49.386;8.674;2023-11-22T06:29:23;101449.78;;;3.70
18713;BMP280;9485;49.386;8.674;2023-11-22T06:34:44;101466.19;;;3.68
18713;BMP280;9485;49.386;8.674;2023-11-22T06:40:05;101475.06;;;3.63
18713;BMP280;9485;49.386;8.674;2023-11-22T06:45:29;101480.69;;;3.60
18713;BMP280;9485;49.386;8.674;2023-11-22T06:50:50;101484.69;;;3.59
18713;BMP280;9485;49.386;8.674;2023-11-22T06:56:11;101485.53;;;3.56
18713;BMP280;9485;49.386;8.674;2023-11-22T07:01:33;101491.88;;;3.60
18713;BMP280;9485;49.386;8.674;2023-11-22T07:06:53;101497.47;;;3.60
18713;BMP280;9485;49.386;8.674;2023-11-22T07:12:14;101494.28;;;3.58
18713;BMP280;9485;49.386;8.674;2023-11-22T07:17:41;101500.69;;;3.58
18713;BMP280;9485;49.386;8.674;2023-11-22T07:23:02;101507.47;;;3.57
18713;BMP280;9485;49.386;8.674;2023-11-22T07:28:23;101520.91;;;3.66
18713;BMP280;9485;49.386;8.674;2023-11-22T07:33:46;101528.44;;;3.69
18713;BMP280;9485;49.386;8.674;2023-11-22T07:39:07;101521.88;;;3.78
18713;BMP280;9485;49.386;8.674;2023-11-22T07:44:31;101519.78;;;3.86
18713;BMP280;9485;49.386;8.674;2023-11-22T07:49:54;101515.63;;;3.94
18713;BMP280;9485;49.386;8.674;2023-11-22T07:55:15;101515.38;;;4.08
18713;BMP280;9485;49.386;8.674;2023-11-22T08:00:37;101518.72;;;4.22
18713;BMP280;9485;49.386;8.674;2023-11-22T08:06:03;101511.66;;;4.37
18713;BMP280;9485;49.386;8.674;2023-11-22T08:11:25;101523.72;;;4.53
18713;BMP280;9485;49.386;8.674;2023-11-22T08:16:47;101529.41;;;4.69
18713;BMP280;9485;49.386;8.674;2023-11-22T08:22:08;101524.28;;;4.84
18713;BMP280;9485;49.386;8.674;2023-11-22T08:27:31;101532.31;;;5.01
18713;BMP280;9485;49.386;8.674;2023-11-22T08:32:51;101523.53;;;5.18
18713;BMP280;9485;49.386;8.674;2023-11-22T08:38:14;101540.94;;;5.45
18713;BMP280;9485;49.386;8.674;2023-11-22T08:43:36;101538.38;;;6.02
18713;BMP280;9485;49.386;8.674;2023-11-22T08:48:56;101557.56;;;6.19
18713;BMP280;9485;49.386;8.674;2023-11-22T08:54:18;101557.91;;;6.66
18713;BMP280;9485;49.386;8.674;2023-11-22T08:59:39;101533.59;;;8.83
18713;BMP280;9485;49.386;8.674;2023-11-22T09:05:00;101532.78;;;10.51
18713;BMP280;9485;49.386;8.674;2023-11-22T09:10:24;101526.03;;;11.62
18713;BMP280;9485;49.386;8.674;2023-11-22T09:15:46;101520.41;;;14.08
18713;BMP280;9485;49.386;8.674;2023-11-22T09:21:07;101534.63;;;15.89
18713;BMP280;9485;49.386;8.674;2023-11-22T09:26:30;101559.22;;;17.28
18713;BMP280;9485;49.386;8.674;2023-11-22T09:31:50;101566.53;;;18.38
18713;BMP280;9485;49.386;8.674;2023-11-22T09:37:11;101568.88;;;19.13
18713;BMP280;9485;49.386;8.674;2023-11-22T09:42:33;101577.97;;;17.56
18713;BMP280;9485;49.386;8.674;2023-11-22T09:47:54;101582.97;;;16.40
18713;BMP280;9485;49.386;8.674;2023-11-22T09:53:30;101589.34;;;15.22
18713;BMP280;9485;49.386;8.674;2023-11-22T09:58:54;101589.50;;;13.42
18713;BMP280;9485;49.386;8.674;2023-11-22T10:04:16;101588.13;;;13.23
18713;BMP280;9485;49.386;8.674;2023-11-22T10:09:36;101606.31;;;14.52
18713;BMP280;9485;49.386;8.674;2023-11-22T10:15:11;101604.38;;;14.43
18713;BMP280;9485;49.386;8.674;2023-11-22T10:20:37;101602.63;;;13.40
18713;BMP280;9485;49.386;8.674;2023-11-22T10:25:59;101610.84;;;13.00
18713;BMP280;9485;49.386;8.674;2023-11-22T10:31:26;101608.72;;;12.39
18713;BMP280;9485;49.386;8.674;2023-11-22T10:36:47;101612.31;;;11.66
18713;BMP280;9485;49.386;8.674;2023-11-22T10:42:10;101640.81;;;11.09
18713;BMP280;9485;49.386;8.674;2023-11-22T10:47:35;101632.63;;;10.84
18713;BMP280;9485;49.386;8.674;2023-11-22T10:52:58;101631.53;;;10.82
18713;BMP280;9485;49.386;8.674;2023-11-22T10:58:20;101632.31;;;10.82
18713;BMP280;9485;49.386;8.674;2023-11-22T11:03:48;101632.94;;;10.77
18713;BMP280;9485;49.386;8.674;2023-11-22T11:09:11;101646.22;;;10.50
18713;BMP280;9485;49.386;8.674;2023-11-22T11:14:37;101661.41;;;10.44
18713;BMP280;9485;49.386;8.674;2023-11-22T11:20:00;101644.06;;;10.15
18713;BMP280;9485;49.386;8.674;2023-11-22T11:25:21;101650.84;;;9.96
18713;BMP280;9485;49.386;8.674;2023-11-22T11:30:46;101657.09;;;9.91
18713;BMP280;9485;49.386;8.674;2023-11-22T11:36:09;101665.59;;;9.69
18713;BMP280;9485;49.386;8.674;2023-11-22T11:41:32;101664.22;;;9.31
18713;BMP280;9485;49.386;8.674;2023-11-22T11:46:55;101673.91;;;9.09
18713;BMP280;9485;49.386;8.674;2023-11-22T11:52:18;101674.88;;;8.94
18713;BMP280;9485;49.386;8.674;2023-11-22T11:57:39;101685.75;;;8.70
18713;BMP280;9485;49.386;8.674;2023-11-22T12:03:01;101683.28;;;8.60
18713;BMP280;9485;49.386;8.674;2023-11-22T12:08:23;101700.06;;;8.51
18713;BMP280;9485;49.386;8.674;2023-11-22T12:13:45;101701.22;;;8.28
18713;BMP280;9485;49.386;8.674;2023-11-22T12:19:09;101701.22;;;8.28
18713;BMP280;9485;49.386;8.674;2023-11-22T12:24:32;101685.97;;;8.14
18713;BMP280;9485;49.386;8.674;2023-11-22T12:29:52;101686.31;;;8.03
18713;BMP280;9485;49.386;8.674;2023-11-22T12:35:14;101660.75;;;8.10
18713;BMP280;9485;49.386;8.674;2023-11-22T12:40:36;101649.16;;;8.08
18713;BMP280;9485;49.386;8.674;2023-11-22T12:46:01;101648.41;;;8.20
18713;BMP280;9485;49.386;8.674;2023-11-22T12:51:22;101648.28;;;8.11
18713;BMP280;9485;49.386;8.674;2023-11-22T12:56:50;101673.28;;;8.22
18713;BMP280;9485;49.386;8.674;2023-11-22T13:02:13;101645.59;;;8.20
18713;BMP280;9485;49.386;8.674;2023-11-22T13:07:34;101660.13;;;8.19
18713;BMP280;9485;49.386;8.674;2023-11-22T13:12:58;101656.19;;;8.16
18713;BMP280;9485;49.386;8.674;2023-11-22T13:18:21;101673.72;;;8.08
18713;BMP280;9485;49.386;8.674;2023-11-22T13:23:41;101653.78;;;8.02
18713;BMP280;9485;49.386;8.674;2023-11-22T13:29:04;101661.88;;;8.00
18713;BMP280;9485;49.386;8.674;2023-11-22T13:34:25;101649.97;;;7.96
18713;BMP280;9485;49.386;8.674;2023-11-22T13:39:49;101669.06;;;7.89
18713;BMP280;9485;49.386;8.674;2023-11-22T13:45:12;101659.59;;;7.83
18713;BMP280;9485;49.386;8.674;2023-11-22T13:50:36;101640.38;;;7.81
18713;BMP280;9485;49.386;8.674;2023-11-22T13:55:57;101624.16;;;7.85
18713;BMP280;9485;49.386;8.674;2023-11-22T14:01:21;101629.81;;;7.85
18713;BMP280;9485;49.386;8.674;2023-11-22T14:06:41;101635.41;;;7.85
18713;BMP280;9485;49.386;8.674;2023-11-22T14:12:03;101628.13;;;7.75
18713;BMP280;9485;49.386;8.674;2023-11-22T14:17:24;101638.47;;;7.66
18713;BMP280;9485;49.386;8.674;2023-11-22T14:22:45;101648.53;;;7.63
18713;BMP280;9485;49.386;8.674;2023-11-22T14:28:07;101678.25;;;7.52
18713;BMP280;9485;49.386;8.674;2023-11-22T14:33:30;101663.22;;;7.43
18713;BMP280;9485;49.386;8.674;2023-11-22T14:38:51;101666.44;;;7.29
18713;BMP280;9485;49.386;8.674;2023-11-22T14:44:16;101675.06;;;7.22
18713;BMP280;9485;49.386;8.674;2023-11-22T14:49:38;101674.97;;;7.25
18713;BMP280;9485;49.386;8.674;2023-11-22T14:54:59;101669.03;;;7.23
18713;BMP280;9485;49.386;8.674;2023-11-22T15:00:21;101659.28;;;7.28
18713;BMP280;9485;49.386;8.674;2023-11-22T15:05:43;101671.75;;;7.27
18713;BMP280;9485;49.386;8.674;2023-11-22T15:11:04;101658.13;;;7.25
18713;BMP280;9485;49.386;8.674;2023-11-22T15:16:27;101660.50;;;7.27
18713;BMP280;9485;49.386;8.674;2023-11-22T15:21:50;101658.78;;;7.17
18713;BMP280;9485;49.386;8.674;2023-11-22T15:27:12;101673.84;;;7.23
18713;BMP280;9485;49.386;8.674;2023-11-22T15:32:33;101689.22;;;7.18
18713;BMP280;9485;49.386;8.674;2023-11-22T15:37:55;101705.78;;;7.00
18713;BMP280;9485;49.386;8.674;2023-11-22T15:43:16;101712.88;;;7.05
18713;BMP280;9485;49.386;8.674;2023-11-22T15:48:36;101714.66;;;6.83
18713;BMP280;9485;49.386;8.674;2023-11-22T15:53:58;101724.41;;;6.78
18713;BMP280;9485;49.386;8.674;2023-11-22T15:59:20;101730.00;;;6.78
18713;BMP280;9485;49.386;8.674;2023-11-22T16:04:40;101735.63;;;6.78
18713;BMP280;9485;49.386;8.674;2023-11-22T16:10:03;101728.88;;;6.76
18713;BMP280;9485;49.386;8.674;2023-11-22T16:15:28;101752.06;;;6.64
18713;BMP280;9485;49.386;8.674;2023-11-22T16:20:48;101753.78;;;6.74
18713;BMP280;9485;49.386;8.674;2023-11-22T16:26:10;101751.88;;;6.71
18713;BMP280;9485;49.386;8.674;2023-11-22T16:31:31;101760.72;;;6.69
18713;BMP280;9485;49.386;8.674;2023-11-22T16:36:52;101774.44;;;6.68
18713;BMP280;9485;49.386;8.674;2023-11-22T16:42:14;101766.16;;;6.61
18713;BMP280;9485;49.386;8.674;2023-11-22T16:47:37;101773.53;;;6.55
18713;BMP280;9485;49.386;8.674;2023-11-22T16:52:58;101782.38;;;6.53
18713;BMP280;9485;49.386;8.674;2023-11-22T16:58:21;101780.09;;;6.48
18713;BMP280;9485;49.386;8.674;2023-11-22T17:03:42;101789.81;;;6.44
18713;BMP280;9485;49.386;8.674;2023-11-22T17:09:05;101788.88;;;6.50
18713;BMP280;9485;49.386;8.674;2023-11-22T17:14:27;101792.38;;;6.54
18713;BMP280;9485;49.386;8.674;2023-11-22T17:19:49;101792.00;;;6.52
18713;BMP280;9485;49.386;8.674;2023-11-22T17:25:10;101783.06;;;6.41
18713;BMP280;9485;49.386;8.674;2023-11-22T17:30:32;101786.41;;;6.36
18713;BMP280;9485;49.386;8.674;2023-11-22T17:38:27;101781.94;;;6.19
18713;BMP280;9485;49.386;8.674;2023-11-22T17:43:48;101774.50;;;6.13
18713;BMP280;9485;49.386;8.674;2023-11-22T17:49:09;101783.16;;;6.02
18713;BMP280;9485;49.386;8.674;2023-11-22T17:54:31;101791.06;;;5.88
18713;BMP280;9485;49.386;8.674;2023-11-22T17:59:52;101772.78;;;5.80
18713;BMP280;9485;49.386;8.674;2023-11-22T18:05:13;101766.16;;;5.71
18713;BMP280;9485;49.386;8.674;2023-11-22T18:10:35;101758.63;;;5.68
18713;BMP280;9485;49.386;8.674;2023-11-22T18:15:55;101773.94;;;5.63
18713;BMP280;9485;49.386;8.674;2023-11-22T18:21:16;101786.13;;;5.53
18713;BMP280;9485;49.386;8.674;2023-11-22T18:26:38;101774.75;;;5.41
18713;BMP280;9485;49.386;8.674;2023-11-22T18:31:59;101777.53;;;5.41
18713;BMP280;9485;49.386;8.674;2023-11-22T18:37:22;101783.16;;;5.41
18713;BMP280;9485;49.386;8.674;2023-11-22T18:42:44;101788.41;;;5.39
18713;BMP280;9485;49.386;8.674;2023-11-22T18:48:04;101797.28;;;5.34
18713;BMP280;9485;49.386;8.674;2023-11-22T18:53:25;101801.88;;;5.24
18713;BMP280;9485;49.386;8.674;2023-11-22T18:58:47;101791.66;;;5.15
18713;BMP280;9485;49.386;8.674;2023-11-22T19:04:08;101797.59;;;5.17
18713;BMP280;9485;49.386;8.674;2023-11-22T19:09:28;101786.97;;;5.08
18713;BMP280;9485;49.386;8.674;2023-11-22T19:14:50;101781.81;;;5.07
18713;BMP280;9485;49.386;8.674;2023-11-22T19:20:11;101768.38;;;4.95
18713;BMP280;9485;49.386;8.674;2023-11-22T19:25:32;101759.59;;;4.96
18713;BMP280;9485;49.386;8.674;2023-11-22T19:30:56;101762.72;;;4.98
18713;BMP280;9485;49.386;8.674;2023-11-22T19:36:20;101761.16;;;4.97
18713;BMP280;9485;49.386;8.674;2023-11-22T19:41:41;101761.28;;;4.90
18713;BMP280;9485;49.386;8.674;2023-11-22T19:47:03;101752.31;;;4.76
18713;BMP280;9485;49.386;8.674;2023-11-22T19:52:24;101751.78;;;4.61
18713;BMP280;9485;49.386;8.674;2023-11-22T19:57:46;101737.53;;;4.52
18713;BMP280;9485;49.386;8.674;2023-11-22T20:03:08;101744.66;;;4.57
18713;BMP280;9485;49.386;8.674;2023-11-22T20:08:29;101734.06;;;4.68
18713;BMP280;9485;49.386;8.674;2023-11-22T20:13:49;101728.97;;;4.63
18713;BMP280;9485;49.386;8.674;2023-11-22T20:19:11;101731.75;;;4.63
18713;BMP280;9485;49.386;8.674;2023-11-22T20:24:32;101734.44;;;4.70
18713;BMP280;9485;49.386;8.674;2023-11-22T20:29:53;101742.13;;;4.66
18713;BMP280;9485;49.386;8.674;2023-11-22T20:35:14;101749.75;;;4.62
18713;BMP280;9485;49.386;8.674;2023-11-22T20:40:35;101744.59;;;4.60
18713;BMP280;9485;49.386;8.674;2023-11-22T20:45:56;101746.25;;;4.58
18713;BMP280;9485;49.386;8.674;2023-11-22T20:51:19;101751.53;;;4.52
18713;BMP280;9485;49.386;8.674;2023-11-22T20:56:40;101750.03;;;4.44
18713;BMP280;9485;49.386;8.674;2023-11-22T21:02:01;101746.97;;;4.36
18713;BMP280;9485;49.386;8.674;2023-11-22T21:07:23;101751.63;;;4.19
18713;BMP280;9485;49.386;8.674;2023-11-22T21:12:43;101735.00;;;4.09
18713;BMP280;9485;49.386;8.674;2023-11-22T21:18:04;101735.28;;;3.88
18713;BMP280;9485;49.386;8.674;2023-11-22T21:23:26;101705.38;;;3.59
18713;BMP280;9485;49.386;8.674;2023-11-22T21:28:46;101726.03;;;3.65
18713;BMP280;9485;49.386;8.674;2023-11-22T21:34:07;101724.72;;;3.72
18713;BMP280;9485;49.386;8.674;2023-11-22T21:39:29;101721.50;;;3.74
18713;BMP280;9485;49.386;8.674;2023-11-22T21:44:50;101727.47;;;3.76
18713;BMP280;9485;49.386;8.674;2023-11-22T21:50:11;101718.41;;;3.69
18713;BMP280;9485;49.386;8.674;2023-11-22T21:55:34;101739.44;;;3.76
18713;BMP280;9485;49.386;8.674;2023-11-22T22:00:54;101734.19;;;3.82
18713;BMP280;9485;49.386;8.674;2023-11-22T22:06:18;101707.59;;;3.70
18713;BMP280;9485;49.386;8.674;2023-11-22T22:11:41;101704.50;;;3.65
18713;BMP280;9485;49.386;8.674;2023-11-22T22:17:02;101718.38;;;3.72
18713;BMP280;9485;49.386;8.674;2023-11-22T22:22:23;101699.69;;;3.66
18713;BMP280;9485;49.386;8.674;2023-11-22T22:27:45;101709.50;;;3.77
18713;BMP280;9485;49.386;8.674;2023-11-22T22:33:05;101705.97;;;3.73
18713;BMP280;9485;49.386;8.674;2023-11-22T22:38:26;101699.88;;;3.81
18713;BMP280;9485;49.386;8.674;2023-11-22T22:43:48;101698.25;;;3.84
18713;BMP280;9485;49.386;8.674;2023-11-22T22:49:09;101718.22;;;3.82
18713;BMP280;9485;49.386;8.674;2023-11-22T22:54:29;101723.06;;;3.78
18713;BMP280;9485;49.386;8.674;2023-11-22T22:59:51;101726.22;;;3.80
18713;BMP280;9485;49.386;8.674;2023-11-22T23:05:12;101720.13;;;3.89
18713;BMP280;9485;49.386;8.674;2023-11-22T23:10:33;101714.00;;;3.97
18713;BMP280;9485;49.386;8.674;2023-11-22T23:15:55;101706.69;;;4.07
18713;BMP280;9485;49.386;8.674;2023-11-22T23:21:15;101711.75;;;4.15
18713;BMP280;9485;49.386;8.674;2023-11-22T23:26:37;101709.22;;;4.24
18713;BMP280;9485;49.386;8.674;2023-11-22T23:32:01;101709.69;;;4.19
18713;BMP280;9485;49.386;8.674;2023-11-22T23:37:21;101710.34;;;4.30
18713;BMP280;9485;49.386;8.674;2023-11-22T23:42:42;101710.50;;;4.43
18713;BMP280;9485;49.386;8.674;2023-11-22T23:48:05;101708.22;;;4.60
18713;BMP280;9485;49.386;8.674;2023-11-22T23:53:26;101725.00;;;4.60
18713;BMP280;9485;49.386;8.674;2023-11-22T23:58:47;101719.00;;;4.62
